sensor_id;sensor_type;location;lat;lon;timestamp;temperature;humidity
48454;DHT22;34261;55.678;12.464;2023-03-14T00:00:32;11.20;99.90
48454;DHT22;34261;55.678;12.464;2023-03-14T00:02:57;11.20;99.90
48454;DHT22;34261;55.678;12.464;2023-03-14T00:05:23;11.20;99.90
48454;DHT22;34261;55.678;12.464;2023-03-14T00:07:48;11.10;99.90
48454;DHT22;34261;55.678;12.464;2023-03-14T00:10:14;11.00;99.90
48454;DHT22;34261;55.678;12.464;2023-03-14T00:12:40;10.90;99.90
48454;DHT22;34261;55.678;12.464;2023-03-14T00:15:06;10.90;99.90
48454;DHT22;34261;55.678;12.464;2023-03-14T00:17:32;10.80;99.90
48454;DHT22;34261;55.678;12.464;2023-03-14T00:19:58;10.80;99.90
48454;DHT22;34261;55.678;12.464;2023-03-14T00:22:29;10.80;99.90
48454;DHT22;34261;55.678;12.464;2023-03-14T00:24:55;10.70;99.90
48454;DHT22;34261;55.678;12.464;2023-03-14T00:27:20;10.60;99.90
48454;DHT22;34261;55.678;12.464;2023-03-14T00:29:46;10.60;99.90
48454;DHT22;34261;55.678;12.464;2023-03-14T00:32:11;10.60;99.90
48454;DHT22;34261;55.678;12.464;2023-03-14T00:34:37;10.60;99.90
48454;DHT22;34261;55.678;12.464;2023-03-14T00:37:02;10.50;99.90
48454;DHT22;34261;55.678;12.464;2023-03-14T00:39:27;10.50;99.90
48454;DHT22;34261;55.678;12.464;2023-03-14T00:41:53;10.50;99.90
48454;DHT22;34261;55.678;12.464;2023-03-14T00:44:18;10.50;99.90
48454;DHT22;34261;55.678;12.464;2023-03-14T00:46:44;10.40;99.90
48454;DHT22;34261;55.678;12.464;2023-03-14T00:49:09;10.40;99.90
48454;DHT22;34261;55.678;12.464;2023-03-14T00:51:35;10.40;99.90
48454;DHT22;34261;55.678;12.464;2023-03-14T00:54:00;10.40;99.90
48454;DHT22;34261;55.678;12.464;2023-03-14T00:56:26;10.40;99.90
48454;DHT22;34261;55.678;12.464;2023-03-14T00:58:54;10.40;99.90
48454;DHT22;34261;55.678;12.464;2023-03-14T01:01:21;10.40;99.90
48454;DHT22;34261;55.678;12.464;2023-03-14T01:03:46;10.40;99.90
48454;DHT22;34261;55.678;12.464;2023-03-14T01:06:13;10.40;99.90
48454;DHT22;34261;55.678;12.464;2023-03-14T01:08:39;10.50;99.90
48454;DHT22;34261;55.678;12.464;2023-03-14T01:11:05;10.50;99.90
48454;DHT22;34261;55.678;12.464;2023-03-14T01:13:30;10.50;99.90
48454;DHT22;34261;55.678;12.464;2023-03-14T01:16:00;10.40;99.90
48454;DHT22;34261;55.678;12.464;2023-03-14T01:18:25;10.40;99.90
48454;DHT22;34261;55.678;12.464;2023-03-14T01:20:51;10.40;99.90
48454;DHT22;34261;55.678;12.464;2023-03-14T01:23:16;10.40;99.90
48454;DHT22;34261;55.678;12.464;2023-03-14T01:25:42;10.40;99.90
48454;DHT22;34261;55.678;12.464;2023-03-14T01:28:07;10.40;99.90
48454;DHT22;34261;55.678;12.464;2023-03-14T01:30:32;10.40;99.90
48454;DHT22;34261;55.678;12.464;2023-03-14T01:32:58;10.40;99.90
48454;DHT22;34261;55.678;12.464;2023-03-14T01:35:23;10.40;99.90
48454;DHT22;34261;55.678;12.464;2023-03-14T01:37:49;10.30;99.90
48454;DHT22;34261;55.678;12.464;2023-03-14T01:40:14;10.30;99.90
48454;DHT22;34261;55.678;12.464;2023-03-14T01:42:45;10.30;99.90
48454;DHT22;34261;55.678;12.464;2023-03-14T01:45:53;10.20;99.90
48454;DHT22;34261;55.678;12.464;2023-03-14T01:48:02;10.30;99.90
48454;DHT22;34261;55.678;12.464;2023-03-14T01:50:28;10.20;99.90
48454;DHT22;34261;55.678;12.464;2023-03-14T01:52:53;10.20;99.90
48454;DHT22;34261;55.678;12.464;2023-03-14T01:55:20;10.20;99.90
48454;DHT22;34261;55.678;12.464;2023-03-14T01:57:54;10.20;99.90
48454;DHT22;34261;55.678;12.464;2023-03-14T02:00:22;10.20;99.90
48454;DHT22;34261;55.678;12.464;2023-03-14T02:02:48;10.10;99.90
48454;DHT22;34261;55.678;12.464;2023-03-14T02:05:17;10.10;99.90
48454;DHT22;34261;55.678;12.464;2023-03-14T02:07:47;10.10;99.90
48454;DHT22;34261;55.678;12.464;2023-03-14T02:10:13;10.20;99.90
48454;DHT22;34261;55.678;12.464;2023-03-14T02:12:39;10.30;99.90
48454;DHT22;34261;55.678;12.464;2023-03-14T02:15:05;10.30;99.90
48454;DHT22;34261;55.678;12.464;2023-03-14T02:17:31;10.30;99.90
48454;DHT22;34261;55.678;12.464;2023-03-14T02:22:37;10.40;99.90
48454;DHT22;34261;55.678;12.464;2023-03-14T02:25:06;10.40;99.90
48454;DHT22;34261;55.678;12.464;2023-03-14T02:27:33;10.40;99.90
48454;DHT22;34261;55.678;12.464;2023-03-14T02:29:59;10.40;99.90
48454;DHT22;34261;55.678;12.464;2023-03-14T02:32:26;10.40;99.90
48454;DHT22;34261;55.678;12.464;2023-03-14T02:34:53;10.40;99.90
48454;DHT22;34261;55.678;12.464;2023-03-14T02:37:20;10.30;99.90
48454;DHT22;34261;55.678;12.464;2023-03-14T02:39:46;10.30;99.90
48454;DHT22;34261;55.678;12.464;2023-03-14T02:42:14;10.40;99.90
48454;DHT22;34261;55.678;12.464;2023-03-14T02:44:51;10.40;99.90
48454;DHT22;34261;55.678;12.464;2023-03-14T02:47:16;10.50;99.90
48454;DHT22;34261;55.678;12.464;2023-03-14T02:49:43;10.50;99.90
48454;DHT22;34261;55.678;12.464;2023-03-14T02:52:09;10.50;99.90
48454;DHT22;34261;55.678;12.464;2023-03-14T02:54:35;10.50;99.90
48454;DHT22;34261;55.678;12.464;2023-03-14T02:57:00;10.50;99.90
48454;DHT22;34261;55.678;12.464;2023-03-14T02:59:27;10.50;99.90
48454;DHT22;34261;55.678;12.464;2023-03-14T03:01:53;10.50;99.90
48454;DHT22;34261;55.678;12.464;2023-03-14T03:04:18;10.50;99.90
48454;DHT22;34261;55.678;12.464;2023-03-14T03:06:44;10.50;99.90
48454;DHT22;34261;55.678;12.464;2023-03-14T03:09:09;10.60;99.90
48454;DHT22;34261;55.678;12.464;2023-03-14T03:11:34;10.60;99.90
48454;DHT22;34261;55.678;12.464;2023-03-14T03:14:00;10.60;99.90
48454;DHT22;34261;55.678;12.464;2023-03-14T03:16:25;10.60;99.90
48454;DHT22;34261;55.678;12.464;2023-03-14T03:18:51;10.60;99.90
48454;DHT22;34261;55.678;12.464;2023-03-14T03:21:16;10.60;99.90
48454;DHT22;34261;55.678;12.464;2023-03-14T03:23:42;10.60;99.90
48454;DHT22;34261;55.678;12.464;2023-03-14T03:26:09;10.60;99.90
48454;DHT22;34261;55.678;12.464;2023-03-14T03:28:34;10.60;99.90
48454;DHT22;34261;55.678;12.464;2023-03-14T03:31:05;10.60;99.90
48454;DHT22;34261;55.678;12.464;2023-03-14T03:33:31;10.60;99.90
48454;DHT22;34261;55.678;12.464;2023-03-14T03:35:56;10.60;99.90
48454;DHT22;34261;55.678;12.464;2023-03-14T03:38:22;10.60;99.90
48454;DHT22;34261;55.678;12.464;2023-03-14T03:40:47;10.60;99.90
48454;DHT22;34261;55.678;12.464;2023-03-14T03:43:12;10.60;99.90
48454;DHT22;34261;55.678;12.464;2023-03-14T03:45:38;10.50;99.90
48454;DHT22;34261;55.678;12.464;2023-03-14T03:48:04;10.40;99.90
48454;DHT22;34261;55.678;12.464;2023-03-14T03:50:29;10.30;99.90
48454;DHT22;34261;55.678;12.464;2023-03-14T03:52:54;10.20;99.90
48454;DHT22;34261;55.678;12.464;2023-03-14T03:55:20;10.20;99.90
48454;DHT22;34261;55.678;12.464;2023-03-14T03:57:45;10.10;99.90
48454;DHT22;34261;55.678;12.464;2023-03-14T04:00:11;10.00;99.90
48454;DHT22;34261;55.678;12.464;2023-03-14T04:02:37;10.00;99.90
48454;DHT22;34261;55.678;12.464;2023-03-14T04:05:03;10.00;99.90
48454;DHT22;34261;55.678;12.464;2023-03-14T04:07:31;9.90;99.90
48454;DHT22;34261;55.678;12.464;2023-03-14T04:09:56;9.90;99.90
48454;DHT22;34261;55.678;12.464;2023-03-14T04:12:22;10.00;99.90
48454;DHT22;34261;55.678;12.464;2023-03-14T04:14:47;10.00;99.90
48454;DHT22;34261;55.678;12.464;2023-03-14T04:17:13;10.00;99.90
48454;DHT22;34261;55.678;12.464;2023-03-14T04:19:38;10.10;99.90
48454;DHT22;34261;55.678;12.464;2023-03-14T04:22:03;10.10;99.90
48454;DHT22;34261;55.678;12.464;2023-03-14T04:24:29;10.10;99.90
48454;DHT22;34261;55.678;12.464;2023-03-14T04:26:54;10.20;99.90
48454;DHT22;34261;55.678;12.464;2023-03-14T04:29:20;10.20;99.90
48454;DHT22;34261;55.678;12.464;2023-03-14T04:31:45;10.30;99.90
48454;DHT22;34261;55.678;12.464;2023-03-14T04:34:11;10.30;99.90
48454;DHT22;34261;55.678;12.464;2023-03-14T04:36:36;10.40;99.90
48454;DHT22;34261;55.678;12.464;2023-03-14T04:39:02;10.40;99.90
48454;DHT22;34261;55.678;12.464;2023-03-14T04:41:28;10.40;99.90
48454;DHT22;34261;55.678;12.464;2023-03-14T04:43:53;10.40;99.90
48454;DHT22;34261;55.678;12.464;2023-03-14T04:46:18;10.50;99.90
48454;DHT22;34261;55.678;12.464;2023-03-14T04:48:44;10.50;99.90
48454;DHT22;34261;55.678;12.464;2023-03-14T04:51:09;10.40;99.90
48454;DHT22;34261;55.678;12.464;2023-03-14T04:53:35;10.50;99.90
48454;DHT22;34261;55.678;12.464;2023-03-14T04:56:02;10.50;99.90
48454;DHT22;34261;55.678;12.464;2023-03-14T04:58:28;10.50;99.90
48454;DHT22;34261;55.678;12.464;2023-03-14T05:00:53;10.50;99.90
48454;DHT22;34261;55.678;12.464;2023-03-14T05:03:19;10.50;99.90
48454;DHT22;34261;55.678;12.464;2023-03-14T05:05:44;10.50;99.90
48454;DHT22;34261;55.678;12.464;2023-03-14T05:08:10;10.50;99.90
48454;DHT22;34261;55.678;12.464;2023-03-14T05:10:35;10.50;99.90
48454;DHT22;34261;55.678;12.464;2023-03-14T05:13:01;10.50;99.90
48454;DHT22;34261;55.678;12.464;2023-03-14T05:15:26;10.50;99.90
48454;DHT22;34261;55.678;12.464;2023-03-14T05:17:52;10.50;99.90
48454;DHT22;34261;55.678;12.464;2023-03-14T05:20:19;10.60;99.90
48454;DHT22;34261;55.678;12.464;2023-03-14T05:22:54;10.60;99.90
48454;DHT22;34261;55.678;12.464;2023-03-14T05:25:19;10.70;99.90
48454;DHT22;34261;55.678;12.464;2023-03-14T05:27:45;10.70;99.90
48454;DHT22;34261;55.678;12.464;2023-03-14T05:30:11;10.60;99.90
48454;DHT22;34261;55.678;12.464;2023-03-14T05:32:36;10.60;99.90
48454;DHT22;34261;55.678;12.464;2023-03-14T05:35:02;10.60;99.90
48454;DHT22;34261;55.678;12.464;2023-03-14T05:37:30;10.60;99.90
48454;DHT22;34261;55.678;12.464;2023-03-14T05:39:56;10.60;99.90
48454;DHT22;34261;55.678;12.464;2023-03-14T05:42:21;10.50;99.90
48454;DHT22;34261;55.678;12.464;2023-03-14T05:44:47;10.40;99.90
48454;DHT22;34261;55.678;12.464;2023-03-14T05:47:13;10.40;99.90
48454;DHT22;34261;55.678;12.464;2023-03-14T05:49:39;10.40;99.90
48454;DHT22;34261;55.678;12.464;2023-03-14T05:52:04;10.30;99.90
48454;DHT22;34261;55.678;12.464;2023-03-14T05:54:33;10.30;99.90
48454;DHT22;34261;55.678;12.464;2023-03-14T05:56:58;10.30;99.90
48454;DHT22;34261;55.678;12.464;2023-03-14T05:59:24;10.20;99.90
48454;DHT22;34261;55.678;12.464;2023-03-14T06:01:50;10.20;99.90
48454;DHT22;34261;55.678;12.464;2023-03-14T06:04:15;10.20;99.90
48454;DHT22;34261;55.678;12.464;2023-03-14T06:06:41;10.20;99.90
48454;DHT22;34261;55.678;12.464;2023-03-14T06:09:06;10.20;99.90
48454;DHT22;34261;55.678;12.464;2023-03-14T06:11:32;10.20;99.90
48454;DHT22;34261;55.678;12.464;2023-03-14T06:13:57;10.20;99.90
48454;DHT22;34261;55.678;12.464;2023-03-14T06:16:23;10.30;99.90
48454;DHT22;34261;55.678;12.464;2023-03-14T06:18:48;10.30;99.90
48454;DHT22;34261;55.678;12.464;2023-03-14T06:21:15;10.30;99.90
48454;DHT22;34261;55.678;12.464;2023-03-14T06:23:42;10.40;99.90
48454;DHT22;34261;55.678;12.464;2023-03-14T06:31:19;10.50;99.90
48454;DHT22;34261;55.678;12.464;2023-03-14T06:33:48;10.50;99.90
48454;DHT22;34261;55.678;12.464;2023-03-14T06:36:22;10.50;99.90
48454;DHT22;34261;55.678;12.464;2023-03-14T06:38:48;10.50;99.90
48454;DHT22;34261;55.678;12.464;2023-03-14T06:49:00;10.70;99.90
48454;DHT22;34261;55.678;12.464;2023-03-14T06:51:26;10.80;99.90
48454;DHT22;34261;55.678;12.464;2023-03-14T06:53:52;10.80;99.90
48454;DHT22;34261;55.678;12.464;2023-03-14T06:56:17;10.80;99.90
48454;DHT22;34261;55.678;12.464;2023-03-14T06:58:46;10.80;99.90
48454;DHT22;34261;55.678;12.464;2023-03-14T07:01:22;10.90;99.90
48454;DHT22;34261;55.678;12.464;2023-03-14T07:03:48;10.90;99.90
48454;DHT22;34261;55.678;12.464;2023-03-14T07:06:13;11.00;99.90
48454;DHT22;34261;55.678;12.464;2023-03-14T07:08:39;10.90;99.90
48454;DHT22;34261;55.678;12.464;2023-03-14T07:11:04;10.90;99.90
48454;DHT22;34261;55.678;12.464;2023-03-14T07:13:30;10.90;99.90
48454;DHT22;34261;55.678;12.464;2023-03-14T07:15:58;10.80;99.90
48454;DHT22;34261;55.678;12.464;2023-03-14T07:18:24;10.80;99.90
48454;DHT22;34261;55.678;12.464;2023-03-14T07:20:49;10.80;99.90
48454;DHT22;34261;55.678;12.464;2023-03-14T07:23:15;10.80;99.90
48454;DHT22;34261;55.678;12.464;2023-03-14T07:25:40;10.80;99.90
48454;DHT22;34261;55.678;12.464;2023-03-14T07:28:11;10.70;99.90
48454;DHT22;34261;55.678;12.464;2023-03-14T07:30:37;10.70;99.90
48454;DHT22;34261;55.678;12.464;2023-03-14T07:33:02;10.60;99.90
48454;DHT22;34261;55.678;12.464;2023-03-14T07:35:27;10.70;99.90
48454;DHT22;34261;55.678;12.464;2023-03-14T07:37:53;10.70;99.90
48454;DHT22;34261;55.678;12.464;2023-03-14T07:40:19;10.70;99.90
48454;DHT22;34261;55.678;12.464;2023-03-14T07:42:44;10.70;99.90
48454;DHT22;34261;55.678;12.464;2023-03-14T07:45:10;10.70;99.90
48454;DHT22;34261;55.678;12.464;2023-03-14T07:47:35;10.70;99.90
48454;DHT22;34261;55.678;12.464;2023-03-14T07:50:02;10.70;99.90
48454;DHT22;34261;55.678;12.464;2023-03-14T07:52:27;10.70;99.90
48454;DHT22;34261;55.678;12.464;2023-03-14T07:54:53;10.70;99.90
48454;DHT22;34261;55.678;12.464;2023-03-14T07:57:18;10.80;99.90
48454;DHT22;34261;55.678;12.464;2023-03-14T07:59:44;10.70;99.90
48454;DHT22;34261;55.678;12.464;2023-03-14T08:02:12;10.80;99.90
48454;DHT22;34261;55.678;12.464;2023-03-14T08:04:38;10.80;99.90
48454;DHT22;34261;55.678;12.464;2023-03-14T08:07:04;10.80;99.90
48454;DHT22;34261;55.678;12.464;2023-03-14T08:09:29;10.90;99.90
48454;DHT22;34261;55.678;12.464;2023-03-14T08:11:55;10.90;99.90
48454;DHT22;34261;55.678;12.464;2023-03-14T08:14:20;10.90;99.90
48454;DHT22;34261;55.678;12.464;2023-03-14T08:16:46;10.90;99.90
48454;DHT22;34261;55.678;12.464;2023-03-14T08:19:11;10.90;99.90
48454;DHT22;34261;55.678;12.464;2023-03-14T08:21:37;10.90;99.90
48454;DHT22;34261;55.678;12.464;2023-03-14T08:24:02;11.00;99.90
48454;DHT22;34261;55.678;12.464;2023-03-14T08:26:27;11.00;99.90
48454;DHT22;34261;55.678;12.464;2023-03-14T08:28:53;11.10;99.90
48454;DHT22;34261;55.678;12.464;2023-03-14T08:31:18;11.10;99.90
48454;DHT22;34261;55.678;12.464;2023-03-14T08:33:44;11.10;99.90
48454;DHT22;34261;55.678;12.464;2023-03-14T08:36:09;11.00;99.90
48454;DHT22;34261;55.678;12.464;2023-03-14T08:38:35;10.90;99.90
48454;DHT22;34261;55.678;12.464;2023-03-14T08:41:01;10.90;99.90
48454;DHT22;34261;55.678;12.464;2023-03-14T08:43:27;10.90;99.90
48454;DHT22;34261;55.678;12.464;2023-03-14T08:45:53;10.80;99.90
48454;DHT22;34261;55.678;12.464;2023-03-14T08:48:18;10.80;99.90
48454;DHT22;34261;55.678;12.464;2023-03-14T08:50:45;10.80;99.90
48454;DHT22;34261;55.678;12.464;2023-03-14T08:53:10;10.90;99.90
48454;DHT22;34261;55.678;12.464;2023-03-14T08:55:35;10.80;99.90
48454;DHT22;34261;55.678;12.464;2023-03-14T08:58:01;10.20;99.90
48454;DHT22;34261;55.678;12.464;2023-03-14T09:00:26;9.30;99.90
48454;DHT22;34261;55.678;12.464;2023-03-14T09:02:52;8.80;99.90
48454;DHT22;34261;55.678;12.464;2023-03-14T09:05:17;8.60;99.90
48454;DHT22;34261;55.678;12.464;2023-03-14T09:07:43;8.20;99.90
48454;DHT22;34261;55.678;12.464;2023-03-14T09:12:44;7.40;99.90
48454;DHT22;34261;55.678;12.464;2023-03-14T09:15:09;7.00;99.90
48454;DHT22;34261;55.678;12.464;2023-03-14T09:22:46;6.40;99.90
48454;DHT22;34261;55.678;12.464;2023-03-14T09:25:11;6.40;99.90
48454;DHT22;34261;55.678;12.464;2023-03-14T09:37:59;5.90;99.90
48454;DHT22;34261;55.678;12.464;2023-03-14T09:40:24;5.70;99.90
48454;DHT22;34261;55.678;12.464;2023-03-14T09:42:56;5.70;99.90
48454;DHT22;34261;55.678;12.464;2023-03-14T09:45:34;5.70;99.90
48454;DHT22;34261;55.678;12.464;2023-03-14T09:48:03;5.70;99.90
48454;DHT22;34261;55.678;12.464;2023-03-14T09:50:31;5.60;99.90
48454;DHT22;34261;55.678;12.464;2023-03-14T09:53:06;5.50;99.90
48454;DHT22;34261;55.678;12.464;2023-03-14T09:55:32;5.40;99.90
48454;DHT22;34261;55.678;12.464;2023-03-14T09:57:59;5.50;99.90
48454;DHT22;34261;55.678;12.464;2023-03-14T10:00:26;5.50;99.90
48454;DHT22;34261;55.678;12.464;2023-03-14T10:02:53;5.50;99.90
48454;DHT22;34261;55.678;12.464;2023-03-14T10:05:21;5.70;99.90
48454;DHT22;34261;55.678;12.464;2023-03-14T10:07:49;5.50;99.90
48454;DHT22;34261;55.678;12.464;2023-03-14T10:10:19;5.60;99.90
48454;DHT22;34261;55.678;12.464;2023-03-14T10:12:46;5.60;99.90
48454;DHT22;34261;55.678;12.464;2023-03-14T10:15:13;5.60;99.90
48454;DHT22;34261;55.678;12.464;2023-03-14T10:17:44;5.70;99.90
48454;DHT22;34261;55.678;12.464;2023-03-14T10:20:29;5.60;99.90
48454;DHT22;34261;55.678;12.464;2023-03-14T10:23:05;5.50;99.90
48454;DHT22;34261;55.678;12.464;2023-03-14T10:25:33;5.60;99.90
48454;DHT22;34261;55.678;12.464;2023-03-14T10:27:59;5.60;99.90
48454;DHT22;34261;55.678;12.464;2023-03-14T10:32:54;5.60;99.90
48454;DHT22;34261;55.678;12.464;2023-03-14T10:35:20;5.40;99.90
48454;DHT22;34261;55.678;12.464;2023-03-14T10:37:56;5.20;99.90
48454;DHT22;34261;55.678;12.464;2023-03-14T10:50:48;5.20;99.90
48454;DHT22;34261;55.678;12.464;2023-03-14T14:13:01;8.20;99.10
48454;DHT22;34261;55.678;12.464;2023-03-14T14:15:31;8.10;98.00
48454;DHT22;34261;55.678;12.464;2023-03-14T14:18:02;7.90;98.30
48454;DHT22;34261;55.678;12.464;2023-03-14T14:20:42;8.10;98.30
48454;DHT22;34261;55.678;12.464;2023-03-14T14:23:17;8.10;97.80
48454;DHT22;34261;55.678;12.464;2023-03-14T14:25:44;8.00;97.90
48454;DHT22;34261;55.678;12.464;2023-03-14T14:28:18;8.10;97.80
48454;DHT22;34261;55.678;12.464;2023-03-14T14:30:46;8.20;97.40
48454;DHT22;34261;55.678;12.464;2023-03-14T14:33:24;7.90;97.50
48454;DHT22;34261;55.678;12.464;2023-03-14T14:35:50;7.70;97.30
48454;DHT22;34261;55.678;12.464;2023-03-14T14:38:16;7.70;97.50
48454;DHT22;34261;55.678;12.464;2023-03-14T14:40:46;7.80;97.50
48454;DHT22;34261;55.678;12.464;2023-03-14T14:43:15;8.00;97.20
48454;DHT22;34261;55.678;12.464;2023-03-14T14:45:42;8.20;97.20
48454;DHT22;34261;55.678;12.464;2023-03-14T14:48:11;8.20;97.10
48454;DHT22;34261;55.678;12.464;2023-03-14T14:53:49;8.20;95.50
48454;DHT22;34261;55.678;12.464;2023-03-14T14:55:54;8.30;95.10
48454;DHT22;34261;55.678;12.464;2023-03-14T14:58:30;8.00;94.00
48454;DHT22;34261;55.678;12.464;2023-03-14T15:03:33;7.90;94.90
48454;DHT22;34261;55.678;12.464;2023-03-14T15:05:59;7.80;94.00
48454;DHT22;34261;55.678;12.464;2023-03-14T15:08:26;7.80;94.10
48454;DHT22;34261;55.678;12.464;2023-03-14T15:10:53;7.70;93.40
48454;DHT22;34261;55.678;12.464;2023-03-14T15:13:19;7.70;93.60
48454;DHT22;34261;55.678;12.464;2023-03-14T15:15:44;7.90;94.00
48454;DHT22;34261;55.678;12.464;2023-03-14T15:18:12;7.90;93.40
48454;DHT22;34261;55.678;12.464;2023-03-14T15:20:38;7.80;93.10
48454;DHT22;34261;55.678;12.464;2023-03-14T15:23:07;7.80;93.20
48454;DHT22;34261;55.678;12.464;2023-03-14T15:25:34;7.90;92.20
48454;DHT22;34261;55.678;12.464;2023-03-14T15:28:00;7.90;92.90
48454;DHT22;34261;55.678;12.464;2023-03-14T15:30:25;7.90;92.70
48454;DHT22;34261;55.678;12.464;2023-03-14T15:32:51;7.90;93.10
48454;DHT22;34261;55.678;12.464;2023-03-14T15:35:17;7.90;92.40
48454;DHT22;34261;55.678;12.464;2023-03-14T15:37:42;7.70;92.60
48454;DHT22;34261;55.678;12.464;2023-03-14T15:40:09;7.70;93.20
48454;DHT22;34261;55.678;12.464;2023-03-14T15:42:39;7.60;93.20
48454;DHT22;34261;55.678;12.464;2023-03-14T15:45:05;7.60;93.30
48454;DHT22;34261;55.678;12.464;2023-03-14T15:47:34;7.60;93.00
48454;DHT22;34261;55.678;12.464;2023-03-14T15:49:59;7.50;92.70
48454;DHT22;34261;55.678;12.464;2023-03-14T15:52:25;7.50;93.20
48454;DHT22;34261;55.678;12.464;2023-03-14T15:54:51;7.50;93.00
48454;DHT22;34261;55.678;12.464;2023-03-14T15:57:17;7.50;92.30
48454;DHT22;34261;55.678;12.464;2023-03-14T15:59:42;7.50;92.30
48454;DHT22;34261;55.678;12.464;2023-03-14T16:02:09;7.50;92.60
48454;DHT22;34261;55.678;12.464;2023-03-14T16:04:35;7.50;92.80
48454;DHT22;34261;55.678;12.464;2023-03-14T16:07:00;7.50;92.90
48454;DHT22;34261;55.678;12.464;2023-03-14T16:09:26;7.50;93.00
48454;DHT22;34261;55.678;12.464;2023-03-14T16:11:53;7.60;93.70
48454;DHT22;34261;55.678;12.464;2023-03-14T16:14:18;7.60;93.40
48454;DHT22;34261;55.678;12.464;2023-03-14T16:16:44;7.60;93.30
48454;DHT22;34261;55.678;12.464;2023-03-14T16:19:10;7.60;93.10
48454;DHT22;34261;55.678;12.464;2023-03-14T16:21:35;7.60;93.30
48454;DHT22;34261;55.678;12.464;2023-03-14T16:24:03;7.50;93.10
48454;DHT22;34261;55.678;12.464;2023-03-14T16:26:31;7.50;93.10
48454;DHT22;34261;55.678;12.464;2023-03-14T16:29:00;7.50;93.40
48454;DHT22;34261;55.678;12.464;2023-03-14T16:31:26;7.40;93.30
48454;DHT22;34261;55.678;12.464;2023-03-14T16:33:52;7.40;93.30
48454;DHT22;34261;55.678;12.464;2023-03-14T16:36:18;7.40;93.40
48454;DHT22;34261;55.678;12.464;2023-03-14T16:38:44;7.20;93.50
48454;DHT22;34261;55.678;12.464;2023-03-14T16:43:35;7.20;94.30
48454;DHT22;34261;55.678;12.464;2023-03-14T16:46:02;7.10;94.50
48454;DHT22;34261;55.678;12.464;2023-03-14T16:48:28;7.00;94.70
48454;DHT22;34261;55.678;12.464;2023-03-14T16:50:53;7.00;94.80
48454;DHT22;34261;55.678;12.464;2023-03-14T16:53:19;6.90;95.10
48454;DHT22;34261;55.678;12.464;2023-03-14T16:55:45;6.80;95.30
48454;DHT22;34261;55.678;12.464;2023-03-14T16:58:11;6.80;95.60
48454;DHT22;34261;55.678;12.464;2023-03-14T17:00:37;6.70;95.80
48454;DHT22;34261;55.678;12.464;2023-03-14T17:03:03;6.70;96.00
48454;DHT22;34261;55.678;12.464;2023-03-14T17:05:29;6.60;96.10
48454;DHT22;34261;55.678;12.464;2023-03-14T17:07:55;6.60;96.40
48454;DHT22;34261;55.678;12.464;2023-03-14T17:10:21;6.60;96.50
48454;DHT22;34261;55.678;12.464;2023-03-14T17:12:46;6.60;97.00
48454;DHT22;34261;55.678;12.464;2023-03-14T17:15:12;6.50;97.10
48454;DHT22;34261;55.678;12.464;2023-03-14T17:17:38;6.50;97.40
48454;DHT22;34261;55.678;12.464;2023-03-14T17:20:04;6.40;97.90
48454;DHT22;34261;55.678;12.464;2023-03-14T17:22:30;6.50;98.50
48454;DHT22;34261;55.678;12.464;2023-03-14T17:24:56;6.50;99.00
48454;DHT22;34261;55.678;12.464;2023-03-14T17:27:21;6.40;99.30
48454;DHT22;34261;55.678;12.464;2023-03-14T17:29:47;6.30;99.90
48454;DHT22;34261;55.678;12.464;2023-03-14T17:32:16;6.30;99.90
48454;DHT22;34261;55.678;12.464;2023-03-14T17:34:42;6.20;99.90
48454;DHT22;34261;55.678;12.464;2023-03-14T17:37:08;6.10;99.90
48454;DHT22;34261;55.678;12.464;2023-03-14T17:39:34;6.00;99.90
48454;DHT22;34261;55.678;12.464;2023-03-14T17:41:59;6.00;99.90
48454;DHT22;34261;55.678;12.464;2023-03-14T17:44:25;6.00;99.90
48454;DHT22;34261;55.678;12.464;2023-03-14T17:46:51;5.90;99.90
48454;DHT22;34261;55.678;12.464;2023-03-14T17:49:16;5.90;99.90
48454;DHT22;34261;55.678;12.464;2023-03-14T17:51:42;5.80;99.90
48454;DHT22;34261;55.678;12.464;2023-03-14T17:54:08;5.70;99.90
48454;DHT22;34261;55.678;12.464;2023-03-14T17:56:34;5.70;99.90
48454;DHT22;34261;55.678;12.464;2023-03-14T17:58:59;5.70;99.90
48454;DHT22;34261;55.678;12.464;2023-03-14T18:01:26;5.60;99.90
48454;DHT22;34261;55.678;12.464;2023-03-14T18:03:54;5.60;99.90
48454;DHT22;34261;55.678;12.464;2023-03-14T18:06:21;5.60;99.90
48454;DHT22;34261;55.678;12.464;2023-03-14T18:08:47;5.60;99.90
48454;DHT22;34261;55.678;12.464;2023-03-14T18:11:15;5.50;99.90
48454;DHT22;34261;55.678;12.464;2023-03-14T18:13:41;5.50;99.90
48454;DHT22;34261;55.678;12.464;2023-03-14T18:16:07;5.40;99.90
48454;DHT22;34261;55.678;12.464;2023-03-14T18:18:33;5.40;99.90
48454;DHT22;34261;55.678;12.464;2023-03-14T18:21:07;5.40;99.90
48454;DHT22;34261;55.678;12.464;2023-03-14T18:44:16;5.20;99.90
48454;DHT22;34261;55.678;12.464;2023-03-14T18:46:44;5.20;99.90
48454;DHT22;34261;55.678;12.464;2023-03-14T18:49:10;5.20;99.90
48454;DHT22;34261;55.678;12.464;2023-03-14T18:51:35;5.10;99.90
48454;DHT22;34261;55.678;12.464;2023-03-14T18:54:01;5.10;99.90
48454;DHT22;34261;55.678;12.464;2023-03-14T18:56:30;5.10;99.90
48454;DHT22;34261;55.678;12.464;2023-03-14T18:58:56;5.00;99.90
48454;DHT22;34261;55.678;12.464;2023-03-14T19:01:33;5.00;99.90
48454;DHT22;34261;55.678;12.464;2023-03-14T19:03:59;5.00;99.90
48454;DHT22;34261;55.678;12.464;2023-03-14T19:06:26;5.00;99.90
48454;DHT22;34261;55.678;12.464;2023-03-14T19:08:52;5.00;99.90
48454;DHT22;34261;55.678;12.464;2023-03-14T19:11:18;5.00;99.90
48454;DHT22;34261;55.678;12.464;2023-03-14T19:13:43;4.90;99.90
48454;DHT22;34261;55.678;12.464;2023-03-14T19:16:10;4.90;99.90
48454;DHT22;34261;55.678;12.464;2023-03-14T19:18:36;4.90;99.90
48454;DHT22;34261;55.678;12.464;2023-03-14T19:21:06;4.90;99.90
48454;DHT22;34261;55.678;12.464;2023-03-14T19:23:32;4.90;99.90
48454;DHT22;34261;55.678;12.464;2023-03-14T19:25:58;4.90;99.90
48454;DHT22;34261;55.678;12.464;2023-03-14T19:28:24;4.90;99.90
48454;DHT22;34261;55.678;12.464;2023-03-14T19:30:50;4.80;99.90
48454;DHT22;34261;55.678;12.464;2023-03-14T19:33:16;4.80;99.90
48454;DHT22;34261;55.678;12.464;2023-03-14T19:35:41;4.80;99.90
48454;DHT22;34261;55.678;12.464;2023-03-14T19:38:10;4.70;99.90
48454;DHT22;34261;55.678;12.464;2023-03-14T19:40:36;4.70;99.90
48454;DHT22;34261;55.678;12.464;2023-03-14T19:43:02;4.70;99.90
48454;DHT22;34261;55.678;12.464;2023-03-14T19:45:28;4.60;99.90
48454;DHT22;34261;55.678;12.464;2023-03-14T19:47:57;4.60;99.90
48454;DHT22;34261;55.678;12.464;2023-03-14T19:50:23;4.50;99.90
48454;DHT22;34261;55.678;12.464;2023-03-14T19:52:49;4.50;99.90